Time;durP1;ratioP1;P1;durP2;ratioP2;P2;SDS_P1;SDS_P2;PMS_P1;PMS_P2;Temp;Humidity;BMP_temperature;BMP_pressure;BME280_temperature;BME280_humidity;BME280_pressure;Samples;Min_cycle;Max_cycle;Signal;HPM_P1;HPM_P2
2024/02/20 00:01:10;;;;;;;4.37;2.77;;;;;;;4.74;95.21;100378.53;5086605;28;20245;-58
2024/02/20 00:03:39;;;;;;;3.30;3.00;;;;;;;4.74;95.54;100378.53;5090191;28;20688;-60
2024/02/20 00:06:08;;;;;;;3.67;3.37;;;;;;;4.76;95.66;100379.44;5093015;28;20207;-58
2024/02/20 00:08:36;;;;;;;3.83;2.87;;;;;;;4.78;95.80;100379.44;5092610;28;20669;-58
2024/02/20 00:11:05;;;;;;;4.53;3.53;;;;;;;4.80;96.28;100383.75;5092800;28;20203;-59
2024/02/20 00:13:36;;;;;;;5.53;4.07;;;;;;;4.80;96.16;100375.25;5087493;28;20628;-59
2024/02/20 00:16:06;;;;;;;6.77;4.83;;;;;;;4.77;96.04;100382.84;5086884;28;20200;-59
2024/02/20 00:18:34;;;;;;;5.20;4.60;;;;;;;4.72;96.99;100381.91;5092968;28;20726;-57
2024/02/20 00:21:04;;;;;;;5.63;4.80;;;;;;;4.69;97.55;100379.31;5088093;28;20473;-59
2024/02/20 00:23:32;;;;;;;5.83;4.60;;;;;;;4.69;98.06;100385.25;5080568;28;20225;-58
2024/02/20 00:26:01;;;;;;;7.37;4.43;;;;;;;4.69;98.90;100385.25;5089471;28;20212;-58
2024/02/20 00:28:29;;;;;;;4.60;4.20;;;;;;;4.66;98.89;100390.31;5092065;28;20200;-58
2024/02/20 00:30:59;;;;;;;5.30;4.33;;;;;;;4.65;98.84;100378.38;5088063;28;20608;-63
2024/02/20 00:33:28;;;;;;;5.20;4.60;;;;;;;4.66;99.43;100380.09;5078994;28;20204;-63
2024/02/20 00:35:56;;;;;;;5.60;4.83;;;;;;;4.67;99.55;100381.81;5087405;28;20279;-63
2024/02/20 00:38:26;;;;;;;6.13;4.43;;;;;;;4.67;100.00;100386.06;5089583;28;20286;-62
2024/02/20 00:40:55;;;;;;;5.50;4.53;;;;;;;4.66;100.00;100381.78;5091472;28;20209;-59
2024/02/20 00:43:23;;;;;;;6.47;4.70;;;;;;;4.66;100.00;100385.19;5091159;28;20216;-60
2024/02/20 00:45:51;;;;;;;5.20;4.50;;;;;;;4.67;100.00;100380.94;5083680;28;20205;-59
2024/02/20 00:48:19;;;;;;;5.00;4.43;;;;;;;4.67;100.00;100380.94;5091759;28;20222;-59
2024/02/20 00:50:47;;;;;;;7.00;4.70;;;;;;;4.65;100.00;100380.94;5091923;28;20200;-59
2024/02/20 00:53:15;;;;;;;6.93;5.60;;;;;;;4.64;100.00;100370.69;5091953;28;20200;-60
2024/02/20 00:55:45;;;;;;;5.80;4.77;;;;;;;4.64;100.00;100374.13;5082406;28;20205;-59
2024/02/20 00:58:14;;;;;;;5.47;4.37;;;;;;;4.62;100.00;100365.56;5079495;28;20657;-59
2024/02/20 01:00:42;;;;;;;5.37;3.90;;;;;;;4.62;100.00;100373.22;5091740;28;20851;-60
2024/02/20 01:03:10;;;;;;;4.63;4.10;;;;;;;4.64;100.00;100369.03;5091567;28;20295;-59
2024/02/20 01:05:38;;;;;;;5.23;4.53;;;;;;;4.62;100.00;100362.16;5090686;28;20199;-59
2024/02/20 01:08:06;;;;;;;5.87;4.47;;;;;;;4.63;100.00;100364.72;5090860;28;20610;-59
2024/02/20 01:10:34;;;;;;;5.57;4.70;;;;;;;4.62;100.00;100363.00;5090601;28;20665;-59
2024/02/20 01:13:04;;;;;;;6.60;4.83;;;;;;;4.64;100.00;100361.34;5089229;28;20281;-61
2024/02/20 01:15:32;;;;;;;8.07;5.50;;;;;;;4.64;100.00;100356.25;5082509;28;20200;-59
2024/02/20 01:18:00;;;;;;;7.47;5.67;;;;;;;4.66;100.00;100359.69;5081105;28;20204;-58
2024/02/20 01:20:31;;;;;;;6.30;4.70;;;;;;;4.65;100.00;100357.97;5077529;28;20209;-59
2024/02/20 01:23:01;;;;;;;7.10;5.43;;;;;;;4.65;100.00;100352.84;5090682;28;20681;-64
2024/02/20 01:25:29;;;;;;;7.73;5.87;;;;;;;4.64;100.00;100350.25;5084763;28;20225;-59
2024/02/20 01:27:57;;;;;;;7.53;6.17;;;;;;;4.69;100.00;100349.53;5075817;28;20193;-60
2024/02/20 01:30:32;;;;;;;7.90;6.83;;;;;;;4.71;100.00;100347.84;5082762;28;20215;-59
2024/02/20 01:33:01;;;;;;;8.33;7.00;;;;;;;4.74;100.00;100347.03;5090571;28;20649;-60
2024/02/20 01:35:32;;;;;;;8.67;6.77;;;;;;;4.75;100.00;100348.75;5089925;28;20287;-59
2024/02/20 01:38:02;;;;;;;8.87;7.07;;;;;;;4.77;100.00;100349.66;5091093;28;20212;-60
2024/02/20 01:40:30;;;;;;;12.33;8.23;;;;;;;4.78;100.00;100349.66;5087421;28;20203;-59
2024/02/20 01:42:59;;;;;;;8.87;7.10;;;;;;;4.79;100.00;100343.75;5085546;28;20280;-60
2024/02/20 01:45:32;;;;;;;11.63;8.00;;;;;;;4.79;100.00;100342.91;5090807;28;20204;-60
2024/02/20 01:48:02;;;;;;;10.07;8.20;;;;;;;4.79;100.00;100346.31;5077912;28;20204;-60
2024/02/20 01:50:34;;;;;;;11.17;9.23;;;;;;;4.83;100.00;100344.66;5077891;28;20300;-59
2024/02/20 01:53:03;;;;;;;9.77;8.20;;;;;;;4.83;100.00;100342.97;5090784;28;20702;-59
2024/02/20 01:55:32;;;;;;;10.60;7.57;;;;;;;4.84;100.00;100342.13;5093062;28;20294;-60
2024/02/20 01:58:01;;;;;;;10.97;8.13;;;;;;;4.88;100.00;100344.72;5086062;28;20201;-59
2024/02/20 02:00:31;;;;;;;9.23;8.30;;;;;;;4.89;100.00;100343.88;5094970;28;20278;-59
2024/02/20 02:02:59;;;;;;;9.77;8.03;;;;;;;4.90;100.00;100343.03;5094455;28;20206;-60
2024/02/20 02:05:27;;;;;;;9.07;7.27;;;;;;;4.92;100.00;100347.34;5092384;28;20564;-61
2024/02/20 02:07:59;;;;;;;10.13;7.63;;;;;;;4.93;100.00;100346.50;5095668;28;20212;-59
2024/02/20 02:10:27;;;;;;;9.30;7.53;;;;;;;4.95;100.00;100347.41;5094326;28;20209;-58
2024/02/20 02:12:55;;;;;;;8.70;7.13;;;;;;;4.97;100.00;100349.97;5089837;28;20318;-61
2024/02/20 02:15:23;;;;;;;9.87;7.50;;;;;;;4.98;100.00;100347.47;5090938;28;20204;-60
2024/02/20 02:17:53;;;;;;;10.30;7.50;;;;;;;4.99;100.00;100354.28;5094527;28;20209;-59
2024/02/20 02:20:21;;;;;;;8.17;7.30;;;;;;;5.02;100.00;100349.22;5089898;28;20200;-60
2024/02/20 02:22:49;;;;;;;10.73;7.70;;;;;;;5.01;100.00;100339.84;5089468;28;20284;-61
2024/02/20 02:25:17;;;;;;;9.07;7.20;;;;;;;5.03;100.00;100344.97;5091844;28;20312;-60
2024/02/20 02:27:49;;;;;;;10.00;8.40;;;;;;;5.01;100.00;100336.44;5095063;28;20276;-64
2024/02/20 02:30:17;;;;;;;10.90;7.63;;;;;;;5.02;100.00;100348.38;5095121;28;20673;-60
2024/02/20 02:32:45;;;;;;;9.00;7.20;;;;;;;5.02;100.00;100345.81;5090196;28;20680;-60
2024/02/20 02:35:13;;;;;;;8.20;6.67;;;;;;;5.03;100.00;100348.38;5095494;28;20228;-61
2024/02/20 02:37:42;;;;;;;9.07;7.20;;;;;;;5.05;100.00;100343.31;5094673;28;20661;-60
2024/02/20 02:40:11;;;;;;;11.03;7.00;;;;;;;5.06;100.00;100340.75;5094250;28;20204;-60
2024/02/20 02:42:40;;;;;;;9.33;7.03;;;;;;;5.06;100.00;100347.56;5094207;28;20215;-62
2024/02/20 02:45:10;;;;;;;8.20;6.63;;;;;;;5.07;100.00;100344.19;5094029;28;21053;-60
2024/02/20 02:47:37;;;;;;;9.53;6.13;;;;;;;5.06;100.00;100347.56;5094429;28;20575;-60
2024/02/20 02:50:06;;;;;;;7.83;5.73;;;;;;;5.06;100.00;100337.34;5087424;28;20568;-64
2024/02/20 02:52:35;;;;;;;7.00;5.63;;;;;;;5.04;100.00;100345.00;5085794;28;20224;-59
2024/02/20 02:55:04;;;;;;;8.23;6.00;;;;;;;5.07;100.00;100344.19;5105078;28;20287;-63
2024/02/20 02:57:32;;;;;;;8.43;5.90;;;;;;;5.06;100.00;100340.75;5093183;28;20289;-61
2024/02/20 03:00:00;;;;;;;7.37;5.40;;;;;;;5.08;100.00;100336.56;5093932;28;20231;-63
2024/02/20 03:02:30;;;;;;;8.67;5.80;;;;;;;5.09;100.00;100342.53;5092967;28;20209;-59
2024/02/20 03:04:58;;;;;;;6.33;5.37;;;;;;;5.11;100.00;100337.41;5089486;28;20598;-59
2024/02/20 03:07:26;;;;;;;7.93;5.20;;;;;;;5.12;100.00;100336.56;5087022;28;20225;-59
2024/02/20 03:09:54;;;;;;;6.83;4.93;;;;;;;5.13;100.00;100336.63;5089718;28;20212;-58
2024/02/20 03:12:22;;;;;;;6.73;5.03;;;;;;;5.12;100.00;100334.03;5092875;28;20335;-61
2024/02/20 03:14:51;;;;;;;6.63;5.30;;;;;;;5.14;100.00;100334.91;5093084;28;20203;-61
2024/02/20 03:17:19;;;;;;;7.37;5.50;;;;;;;5.13;100.00;100331.50;5093185;28;20258;-59
2024/02/20 03:19:48;;;;;;;6.60;5.33;;;;;;;5.15;100.00;100339.19;5093513;28;20215;-59
2024/02/20 03:22:18;;;;;;;7.43;5.23;;;;;;;5.14;100.00;100337.47;5093289;28;20205;-60
2024/02/20 03:24:47;;;;;;;8.33;5.50;;;;;;;5.12;100.00;100336.56;5087327;28;20217;-59
2024/02/20 03:27:15;;;;;;;8.33;6.30;;;;;;;5.11;100.00;100342.53;5088878;28;20228;-59
2024/02/20 03:29:43;;;;;;;8.17;5.87;;;;;;;5.10;100.00;100341.66;5101493;28;20668;-59
2024/02/20 03:32:11;;;;;;;7.63;5.70;;;;;;;5.12;100.00;100340.00;5083502;28;20205;-60
2024/02/20 03:34:39;;;;;;;8.60;5.77;;;;;;;5.14;100.00;100338.31;5090099;28;20196;-60
2024/02/20 03:37:09;;;;;;;9.77;6.83;;;;;;;5.15;100.00;100342.59;5088646;28;20211;-59
2024/02/20 03:39:37;;;;;;;9.37;6.57;;;;;;;5.15;100.00;100340.03;5088963;28;20201;-58
2024/02/20 03:42:05;;;;;;;9.20;6.50;;;;;;;5.16;100.00;100335.81;5093257;28;20690;-59
2024/02/20 03:44:33;;;;;;;9.90;6.83;;;;;;;5.18;100.00;100350.31;5080917;28;20755;-60
2024/02/20 03:47:01;;;;;;;7.80;6.27;;;;;;;5.20;100.00;100347.78;5086567;28;20228;-59
2024/02/20 03:49:29;;;;;;;8.90;6.70;;;;;;;5.20;100.00;100347.78;5092329;28;20261;-63
2024/02/20 03:51:57;;;;;;;9.83;6.77;;;;;;;5.22;100.00;100346.09;5092516;28;20223;-60
2024/02/20 03:54:27;;;;;;;9.20;6.73;;;;;;;5.22;100.00;100348.66;5092940;28;20208;-58
2024/02/20 03:56:55;;;;;;;8.87;7.33;;;;;;;5.22;100.00;100354.63;5092647;28;20204;-59
2024/02/20 03:59:23;;;;;;;8.40;6.03;;;;;;;5.24;100.00;100355.50;5092778;28;20286;-59
2024/02/20 04:01:51;;;;;;;9.83;7.33;;;;;;;5.28;100.00;100352.16;5089797;28;20197;-61
2024/02/20 04:04:20;;;;;;;7.53;6.00;;;;;;;5.30;100.00;100349.63;5086982;28;20216;-60
2024/02/20 04:06:48;;;;;;;8.83;7.17;;;;;;;5.31;100.00;100344.56;5097164;28;20207;-61
2024/02/20 04:09:16;;;;;;;7.73;6.27;;;;;;;5.33;100.00;100347.13;5092905;28;20274;-60
2024/02/20 04:11:46;;;;;;;7.53;6.23;;;;;;;5.35;100.00;100358.22;5092366;28;20241;-59
2024/02/20 04:14:14;;;;;;;9.03;6.87;;;;;;;5.36;100.00;100351.41;5091349;28;20589;-61
2024/02/20 04:16:42;;;;;;;9.73;6.70;;;;;;;5.38;100.00;100359.97;5091548;28;20734;-62
2024/02/20 04:19:10;;;;;;;8.53;6.57;;;;;;;5.41;100.00;100352.34;5092315;28;20219;-60
2024/02/20 04:21:38;;;;;;;7.73;6.47;;;;;;;5.40;100.00;100358.28;5079632;28;20646;-61
2024/02/20 04:24:08;;;;;;;8.43;7.07;;;;;;;5.41;100.00;100354.88;5090214;28;20641;-60
2024/02/20 04:26:36;;;;;;;10.57;6.67;;;;;;;5.43;100.00;100360.91;5095720;28;20268;-59
2024/02/20 04:29:05;;;;;;;7.57;6.27;;;;;;;5.45;100.00;100369.44;5093256;28;20204;-61
2024/02/20 04:31:33;;;;;;;10.03;7.43;;;;;;;5.44;100.00;100365.16;5077765;28;20634;-60
2024/02/20 04:34:01;;;;;;;7.13;6.43;;;;;;;5.42;100.00;100375.38;5086534;28;20204;-59
2024/02/20 04:36:30;;;;;;;8.73;6.50;;;;;;;5.42;100.00;100364.28;5092187;28;20657;-60
2024/02/20 04:38:58;;;;;;;7.97;6.63;;;;;;;5.43;100.00;100366.00;5084688;28;20257;-59
2024/02/20 04:41:26;;;;;;;9.27;6.97;;;;;;;5.44;100.00;100362.59;5082795;28;20213;-59
2024/02/20 04:43:54;;;;;;;8.83;6.10;;;;;;;5.43;100.00;100360.91;5090438;28;20737;-62
2024/02/20 04:46:27;;;;;;;9.63;7.90;;;;;;;5.44;100.00;100362.59;5090657;28;20228;-61
2024/02/20 04:48:55;;;;;;;9.00;7.00;;;;;;;5.43;100.00;100364.31;5079580;28;20563;-62
2024/02/20 04:51:24;;;;;;;9.80;7.40;;;;;;;5.44;100.00;100370.28;5091660;28;20283;-60
2024/02/20 04:53:52;;;;;;;8.07;7.23;;;;;;;5.43;100.00;100369.41;5091201;28;20212;-61
2024/02/20 04:56:20;;;;;;;9.07;6.97;;;;;;;5.43;100.00;100366.88;5091975;28;20326;-60
2024/02/20 04:58:48;;;;;;;10.47;7.43;;;;;;;5.45;100.00;100371.97;5076963;28;20605;-60
2024/02/20 05:01:17;;;;;;;9.67;6.90;;;;;;;5.45;100.00;100366.88;5077613;28;20622;-60
2024/02/20 05:03:47;;;;;;;8.90;7.27;;;;;;;5.46;100.00;100372.03;5099180;28;20657;-60
2024/02/20 05:06:15;;;;;;;8.90;7.33;;;;;;;5.46;100.00;100373.72;5091577;28;20213;-60
2024/02/20 05:08:43;;;;;;;8.50;7.47;;;;;;;5.44;100.00;100368.56;5087165;28;20254;-60
2024/02/20 05:11:11;;;;;;;8.80;6.90;;;;;;;5.44;100.00;100372.81;5078464;28;20287;-60
2024/02/20 05:13:42;;;;;;;10.03;6.83;;;;;;;5.46;100.00;100376.28;5090637;28;20208;-61
2024/02/20 05:16:10;;;;;;;7.70;6.90;;;;;;;5.43;100.00;100381.34;5086343;28;20201;-59
2024/02/20 05:18:38;;;;;;;10.03;6.23;;;;;;;5.43;100.00;100382.19;5087084;28;20227;-60
2024/02/20 05:21:10;;;;;;;7.17;5.40;;;;;;;5.42;100.00;100384.75;5088269;28;20205;-62
2024/02/20 05:23:38;;;;;;;8.77;5.80;;;;;;;5.41;100.00;100386.41;5086620;28;20610;-59
2024/02/20 05:26:07;;;;;;;5.93;5.10;;;;;;;5.42;100.00;100393.25;5077378;28;20641;-60
2024/02/20 05:28:35;;;;;;;6.93;5.70;;;;;;;5.42;100.00;100395.81;5090818;28;20204;-64
2024/02/20 05:31:21;;;;;;;7.33;5.77;;;;;;;5.44;100.00;100393.28;5072333;28;20213;-61
2024/02/20 05:33:49;;;;;;;6.60;5.03;;;;;;;5.44;100.00;100389.00;5091225;28;20197;-59
2024/02/20 05:36:19;;;;;;;8.27;5.07;;;;;;;5.46;100.00;100387.34;5091371;28;20247;-60
2024/02/20 05:38:47;;;;;;;8.60;5.40;;;;;;;5.47;100.00;100391.63;5083564;28;20344;-67
2024/02/20 05:41:15;;;;;;;7.23;5.77;;;;;;;5.46;100.00;100396.72;5088518;28;20196;-61
2024/02/20 05:43:43;;;;;;;7.03;5.10;;;;;;;5.46;100.00;100396.72;5086199;28;20232;-59
2024/02/20 05:46:11;;;;;;;7.70;5.33;;;;;;;5.46;100.00;100386.50;5088897;28;20224;-60
2024/02/20 05:48:39;;;;;;;9.80;5.93;;;;;;;5.47;100.00;100396.72;5091235;28;20372;-62
2024/02/20 05:51:08;;;;;;;8.43;6.20;;;;;;;5.49;100.00;100389.09;5091344;28;20204;-61
2024/02/20 05:53:37;;;;;;;6.73;5.57;;;;;;;5.51;100.00;100397.63;5088066;28;20207;-65
2024/02/20 05:56:06;;;;;;;7.47;5.77;;;;;;;5.50;100.00;100399.34;5084896;28;20201;-59
2024/02/20 05:58:34;;;;;;;6.80;5.80;;;;;;;5.51;100.00;100400.19;5093155;28;20250;-61
2024/02/20 06:01:02;;;;;;;8.10;6.27;;;;;;;5.50;100.00;100396.78;5077095;28;20611;-61
2024/02/20 06:03:30;;;;;;;9.03;6.80;;;;;;;5.49;100.00;100405.28;5087128;28;20208;-58
2024/02/20 06:05:58;;;;;;;10.53;6.70;;;;;;;5.49;100.00;100410.41;5090949;28;20227;-61
2024/02/20 06:08:26;;;;;;;9.60;6.60;;;;;;;5.50;100.00;100403.59;5090629;28;20251;-60
2024/02/20 06:10:56;;;;;;;8.70;6.37;;;;;;;5.51;100.00;100407.84;5091389;28;20239;-59
2024/02/20 06:13:24;;;;;;;7.73;6.17;;;;;;;5.50;100.00;100411.25;5084278;28;20256;-58
2024/02/20 06:15:53;;;;;;;9.73;6.90;;;;;;;5.49;100.00;100404.44;5089425;28;20201;-60
2024/02/20 06:18:20;;;;;;;8.97;6.53;;;;;;;5.51;100.00;100412.97;5082755;28;20647;-59
2024/02/20 06:20:49;;;;;;;8.43;6.30;;;;;;;5.49;100.00;100407.84;5085171;28;20637;-60
2024/02/20 06:23:23;;;;;;;9.57;5.93;;;;;;;5.51;100.00;100410.41;5089524;28;20207;-60
2024/02/20 06:25:51;;;;;;;8.47;6.47;;;;;;;5.52;100.00;100413.00;5089633;28;21069;-62
2024/02/20 06:28:20;;;;;;;10.90;6.53;;;;;;;5.53;100.00;100414.72;5088031;28;20258;-59
2024/02/20 06:30:48;;;;;;;8.70;6.33;;;;;;;5.54;100.00;100415.56;5089195;28;20200;-61
2024/02/20 06:33:16;;;;;;;9.37;5.90;;;;;;;5.55;100.00;100414.72;5083425;28;20710;-60
2024/02/20 06:35:44;;;;;;;6.10;5.33;;;;;;;5.56;100.00;100413.91;5088888;28;20209;-62
2024/02/20 06:38:12;;;;;;;9.30;6.43;;;;;;;5.57;100.00;100420.75;5089830;28;20641;-62
2024/02/20 06:40:40;;;;;;;8.47;5.33;;;;;;;5.55;100.00;100425.81;5088598;28;20661;-66
2024/02/20 06:43:09;;;;;;;6.73;5.40;;;;;;;5.55;100.00;100415.59;5093380;28;20730;-61
2024/02/20 06:45:41;;;;;;;7.00;5.40;;;;;;;5.54;100.00;100410.47;5093477;28;20243;-62
2024/02/20 06:48:09;;;;;;;8.17;4.93;;;;;;;5.53;100.00;100419.84;5092349;28;20680;-61
2024/02/20 06:50:40;;;;;;;6.77;5.20;;;;;;;5.58;100.00;100419.91;5084321;28;20243;-62
2024/02/20 06:53:09;;;;;;;9.80;5.67;;;;;;;5.61;100.00;100427.63;5093017;28;20288;-67
2024/02/20 06:55:42;;;;;;;8.57;5.83;;;;;;;5.61;100.00;100427.63;5092846;28;20209;-61
2024/02/20 06:58:10;;;;;;;7.80;5.13;;;;;;;5.64;100.00;100427.66;5086407;28;20753;-62
2024/02/20 07:00:40;;;;;;;5.27;4.53;;;;;;;5.65;100.00;100431.94;5092658;28;20281;-61
2024/02/20 07:03:10;;;;;;;6.17;4.43;;;;;;;5.64;100.00;100437.03;5086440;28;20277;-61
2024/02/20 07:05:38;;;;;;;6.27;4.60;;;;;;;5.63;99.85;100436.16;5091338;28;20216;-62
2024/02/20 07:08:08;;;;;;;9.27;4.70;;;;;;;5.65;100.00;100444.72;5087516;28;20585;-60
2024/02/20 07:10:39;;;;;;;7.23;4.53;;;;;;;5.67;99.37;100448.16;5088958;28;20204;-60
2024/02/20 07:13:07;;;;;;;7.90;4.50;;;;;;;5.66;100.00;100436.19;5085209;28;20323;-61
2024/02/20 07:15:39;;;;;;;7.83;4.27;;;;;;;5.67;99.93;100443.06;5093366;28;20639;-59
2024/02/20 07:18:08;;;;;;;5.07;3.73;;;;;;;5.69;99.80;100446.47;5102481;28;20201;-61
2024/02/20 07:20:37;;;;;;;5.23;3.43;;;;;;;5.71;99.48;100442.25;5091522;28;20277;-60
2024/02/20 07:23:05;;;;;;;6.30;3.70;;;;;;;5.72;99.43;100443.97;5083226;28;20238;-61
2024/02/20 07:25:34;;;;;;;5.53;3.70;;;;;;;5.71;98.92;100449.06;5092977;28;20258;-61
2024/02/20 07:28:02;;;;;;;6.50;3.27;;;;;;;5.71;99.23;100447.38;5087760;28;20208;-60
2024/02/20 07:30:30;;;;;;;7.17;3.37;;;;;;;5.73;98.68;100447.38;5094382;28;20204;-60
2024/02/20 07:33:00;;;;;;;7.13;3.80;;;;;;;5.74;99.42;100449.97;5089951;28;20303;-60
2024/02/20 07:35:28;;;;;;;5.97;3.67;;;;;;;5.77;98.96;100444.03;5082601;28;20240;-61
2024/02/20 07:37:56;;;;;;;7.43;3.77;;;;;;;5.80;98.75;100449.19;5092285;28;20196;-63
2024/02/20 07:40:24;;;;;;;5.07;3.40;;;;;;;5.84;98.91;100455.22;5093060;28;20649;-68
2024/02/20 07:42:53;;;;;;;6.33;4.00;;;;;;;5.84;98.00;100455.22;5092862;28;20265;-63
2024/02/20 07:45:21;;;;;;;7.07;3.37;;;;;;;5.88;98.46;100454.41;5079121;28;20205;-60
2024/02/20 07:47:49;;;;;;;5.47;3.83;;;;;;;5.88;97.87;100455.25;5087666;28;20949;-63
2024/02/20 07:50:19;;;;;;;7.20;3.67;;;;;;;5.89;97.79;100461.22;5084367;28;20574;-61
2024/02/20 07:52:48;;;;;;;9.57;3.67;;;;;;;5.89;97.92;100453.56;5091962;28;20291;-61
2024/02/20 07:55:18;;;;;;;7.27;3.67;;;;;;;5.90;97.34;100456.16;5092019;28;20657;-61
2024/02/20 07:57:46;;;;;;;7.87;4.20;;;;;;;5.89;96.24;100454.44;5092872;28;20207;-61
2024/02/20 08:00:15;;;;;;;3.93;3.20;;;;;;;5.93;97.38;100455.34;5088615;28;20224;-63
2024/02/20 08:02:43;;;;;;;5.03;3.13;;;;;;;5.92;96.91;100458.72;5083920;28;20211;-62
2024/02/20 08:05:12;;;;;;;3.80;3.10;;;;;;;5.92;96.01;100453.59;5090468;28;20199;-64
2024/02/20 08:07:42;;;;;;;4.73;3.07;;;;;;;5.94;97.07;100463.06;5091417;28;20269;-64
2024/02/20 08:10:11;;;;;;;5.43;3.03;;;;;;;5.95;96.50;100459.66;5091323;28;20523;-62
2024/02/20 08:12:40;;;;;;;5.07;3.17;;;;;;;5.96;96.82;100455.41;5092227;28;20240;-63
2024/02/20 08:15:08;;;;;;;5.00;3.37;;;;;;;5.95;96.38;100458.81;5091167;28;20259;-60
2024/02/20 08:17:37;;;;;;;6.07;3.10;;;;;;;5.98;96.20;100454.59;5092471;28;20672;-61
2024/02/20 08:20:06;;;;;;;5.53;2.53;;;;;;;5.94;96.03;100457.09;5089072;28;20678;-64
2024/02/20 08:22:34;;;;;;;5.33;3.07;;;;;;;5.96;96.70;100455.41;5087122;28;20677;-61
2024/02/20 08:25:04;;;;;;;3.93;3.07;;;;;;;6.00;96.19;100452.03;5090137;28;20292;-62
2024/02/20 08:27:32;;;;;;;5.27;3.40;;;;;;;6.04;96.73;100453.84;5085928;28;20547;-63
2024/02/20 08:30:00;;;;;;;4.07;3.10;;;;;;;6.07;95.58;100447.88;5090085;28;20293;-65
2024/02/20 08:32:28;;;;;;;4.73;3.23;;;;;;;6.03;95.12;100439.28;5092892;28;20215;-64
2024/02/20 08:34:56;;;;;;;7.07;3.20;;;;;;;6.06;96.02;100444.47;5089269;28;20208;-63
2024/02/20 08:37:24;;;;;;;6.73;3.37;;;;;;;6.10;94.73;100448.78;5090958;28;20418;-62
2024/02/20 08:39:53;;;;;;;5.83;3.47;;;;;;;6.14;95.76;100450.53;5086353;28;20207;-61
2024/02/20 08:42:22;;;;;;;6.93;4.07;;;;;;;6.19;95.46;100443.78;5090589;28;20204;-61
2024/02/20 08:44:50;;;;;;;6.70;3.70;;;;;;;6.21;94.30;100454.03;5092020;28;20227;-61
2024/02/20 08:47:18;;;;;;;6.27;3.43;;;;;;;6.26;95.35;100448.16;5090448;28;20232;-61
2024/02/20 08:49:49;;;;;;;9.07;4.60;;;;;;;6.36;94.66;100458.47;5091404;28;20212;-64
2024/02/20 08:52:18;;;;;;;7.07;4.17;;;;;;;6.36;93.82;100459.34;5090304;28;20196;-62
2024/02/20 08:54:46;;;;;;;5.77;3.47;;;;;;;6.38;94.20;100459.38;5090708;28;20250;-63
2024/02/20 08:57:14;;;;;;;7.10;3.90;;;;;;;6.41;94.46;100459.41;5089759;28;20196;-61
2024/02/20 08:59:45;;;;;;;6.10;3.30;;;;;;;6.41;92.44;100454.28;5084560;28;20233;-62
2024/02/20 09:02:14;;;;;;;7.47;4.00;;;;;;;6.39;92.67;100461.09;5089897;28;20223;-62
2024/02/20 09:04:42;;;;;;;9.57;4.60;;;;;;;6.41;92.75;100461.97;5089671;28;20216;-61
2024/02/20 09:07:11;;;;;;;6.10;3.53;;;;;;;6.46;94.20;100468.00;5091046;28;20213;-63
2024/02/20 09:09:40;;;;;;;5.27;4.10;;;;;;;6.47;92.68;100467.16;5087563;28;20211;-64
2024/02/20 09:12:08;;;;;;;5.83;4.30;;;;;;;6.54;93.01;100466.38;5088737;28;20232;-61
2024/02/20 09:14:37;;;;;;;4.23;3.50;;;;;;;6.59;93.08;100469.88;5087412;28;20196;-58
2024/02/20 09:17:06;;;;;;;5.77;4.43;;;;;;;6.64;91.30;100478.44;5086033;28;20633;-59
2024/02/20 09:19:34;;;;;;;5.63;4.10;;;;;;;6.63;92.22;100471.63;5094328;28;20235;-58
2024/02/20 09:22:05;;;;;;;6.93;3.63;;;;;;;6.64;91.80;100473.31;5090529;28;20653;-58
2024/02/20 09:24:33;;;;;;;8.97;4.47;;;;;;;6.65;92.34;100475.03;5085553;28;20201;-61
2024/02/20 09:27:03;;;;;;;7.47;3.53;;;;;;;6.70;92.47;100467.41;5090973;28;20567;-61
2024/02/20 09:29:31;;;;;;;4.60;3.43;;;;;;;6.77;92.34;100475.19;5090078;28;20216;-60
2024/02/20 09:32:00;;;;;;;6.97;4.90;;;;;;;6.84;91.58;100470.13;5084400;28;20201;-60
2024/02/20 09:34:29;;;;;;;7.40;3.97;;;;;;;6.84;90.76;100482.91;5087938;28;20230;-62
2024/02/20 09:36:57;;;;;;;4.80;3.70;;;;;;;6.82;91.25;100471.81;5088311;28;20202;-60
2024/02/20 09:39:28;;;;;;;5.20;4.00;;;;;;;6.82;91.32;100477.78;5088941;28;20201;-59
2024/02/20 09:42:00;;;;;;;5.77;4.23;;;;;;;6.80;91.83;100483.72;5083160;28;20205;-59
2024/02/20 09:44:30;;;;;;;7.07;3.83;;;;;;;6.80;92.30;100483.72;5088299;28;20211;-60
2024/02/20 09:47:02;;;;;;;8.30;4.03;;;;;;;6.77;91.50;100489.66;5084404;28;20201;-61
2024/02/20 09:49:34;;;;;;;7.83;3.40;;;;;;;6.75;91.63;100492.22;5089121;28;20217;-60
2024/02/20 09:52:04;;;;;;;5.17;3.77;;;;;;;6.70;91.76;100488.78;5079948;28;20225;-59
2024/02/20 09:54:33;;;;;;;4.23;3.33;;;;;;;6.68;92.15;100487.88;5087188;28;20665;-59
2024/02/20 09:57:03;;;;;;;5.63;3.60;;;;;;;6.71;92.63;100493.03;5089642;28;20200;-60
2024/02/20 09:59:31;;;;;;;4.30;3.03;;;;;;;6.68;92.09;100487.88;5085317;28;20224;-62
2024/02/20 10:02:00;;;;;;;5.00;3.73;;;;;;;6.68;91.95;100495.56;5088237;28;20197;-58
2024/02/20 10:04:33;;;;;;;5.03;3.50;;;;;;;6.64;91.44;100498.94;5090513;28;20290;-61
2024/02/20 10:07:05;;;;;;;7.57;3.97;;;;;;;6.63;92.57;100491.22;5084932;28;20204;-59
2024/02/20 10:09:33;;;;;;;6.03;3.13;;;;;;;6.67;92.35;100491.28;5087935;28;20220;-58
2024/02/20 10:12:01;;;;;;;4.73;3.07;;;;;;;6.75;91.89;100497.34;5088621;28;20762;-57
2024/02/20 10:14:30;;;;;;;7.20;3.40;;;;;;;6.85;90.46;100495.75;5089596;28;20245;-59
2024/02/20 10:17:03;;;;;;;3.70;2.80;;;;;;;6.96;90.45;100493.31;5087115;28;20208;-60
2024/02/20 10:19:31;;;;;;;6.07;3.77;;;;;;;7.10;88.60;100489.16;5090068;28;20193;-59
2024/02/20 10:22:00;;;;;;;4.70;3.07;;;;;;;7.22;86.90;100489.31;5093223;28;20200;-58
2024/02/20 10:24:30;;;;;;;5.53;3.20;;;;;;;7.32;86.31;100494.50;5092524;28;20204;-58
2024/02/20 10:27:05;;;;;;;5.00;2.23;;;;;;;7.32;85.02;100485.09;5089574;28;20204;-58
2024/02/20 10:29:33;;;;;;;3.80;2.30;;;;;;;7.30;85.15;100491.94;5097392;28;20216;-59
2024/02/20 10:32:01;;;;;;;3.03;2.00;;;;;;;7.34;84.99;100495.38;5093859;28;20200;-62
2024/02/20 10:34:29;;;;;;;2.93;1.70;;;;;;;7.39;85.12;100491.13;5092099;28;20661;-64
2024/02/20 10:37:05;;;;;;;3.13;1.73;;;;;;;7.46;83.57;100487.78;5092653;28;20211;-58
2024/02/20 10:39:35;;;;;;;3.47;1.77;;;;;;;7.47;83.53;100480.13;5093298;28;20201;-59
2024/02/20 10:42:06;;;;;;;3.40;1.80;;;;;;;7.47;82.23;100479.22;5092338;28;20861;-60
2024/02/20 10:44:34;;;;;;;3.80;1.70;;;;;;;7.44;81.88;100479.25;5088210;28;20241;-65
2024/02/20 10:47:06;;;;;;;2.37;1.57;;;;;;;7.43;81.25;100498.00;5089055;28;20205;-64
2024/02/20 10:49:35;;;;;;;1.43;1.33;;;;;;;7.44;82.24;100492.06;5092357;28;20213;-65
2024/02/20 10:52:04;;;;;;;2.47;1.73;;;;;;;7.54;81.65;100491.25;5093135;28;20201;-64
2024/02/20 10:54:34;;;;;;;3.20;1.77;;;;;;;7.60;80.34;100482.78;5092922;28;20668;-66
2024/02/20 10:57:14;;;;;;;1.50;1.40;;;;;;;7.65;80.08;100483.66;5093674;28;20292;-64
2024/02/20 10:59:44;;;;;;;2.13;1.87;;;;;;;7.71;80.87;100487.13;5085572;28;20193;-64
2024/02/20 11:02:13;;;;;;;5.00;2.90;;;;;;;7.73;79.61;100482.00;5091850;28;20201;-64
2024/02/20 11:04:42;;;;;;;5.67;3.30;;;;;;;7.83;79.86;100483.78;5084482;28;20202;-61
2024/02/20 11:07:10;;;;;;;3.00;1.80;;;;;;;7.94;79.47;100492.41;5084648;28;20228;-64
2024/02/20 11:09:39;;;;;;;2.63;2.03;;;;;;;8.02;78.27;100482.19;5085692;28;20676;-64
2024/02/20 11:12:08;;;;;;;3.40;2.17;;;;;;;8.01;78.45;100485.59;5087887;28;20228;-65
2024/02/20 11:14:36;;;;;;;3.10;1.70;;;;;;;7.97;77.91;100483.88;5091950;28;20246;-63
2024/02/20 11:17:14;;;;;;;2.83;2.20;;;;;;;7.90;77.42;100479.56;5090064;28;20201;-64
2024/02/20 11:20:05;;;;;;;3.00;2.20;;;;;;;7.90;79.03;100477.00;5090334;28;20207;-65
2024/02/20 11:22:34;;;;;;;2.80;1.93;;;;;;;7.92;79.00;100480.44;5092054;28;20245;-65
2024/02/20 11:25:10;;;;;;;3.87;2.23;;;;;;;7.78;78.23;100484.63;5089176;28;20232;-65
2024/02/20 11:27:40;;;;;;;2.20;2.00;;;;;;;7.71;78.45;100479.44;5088684;28;20203;-63
2024/02/20 11:30:13;;;;;;;3.67;2.00;;;;;;;7.74;78.76;100478.59;5083511;28;20240;-64
2024/02/20 11:32:41;;;;;;;2.83;1.80;;;;;;;7.78;78.53;100479.47;5087580;28;20208;-65
2024/02/20 11:35:23;;;;;;;3.63;1.90;;;;;;;7.81;78.69;100479.50;5089697;28;20200;-65
2024/02/20 11:37:53;;;;;;;3.20;2.17;;;;;;;7.87;78.05;100484.66;5091758;28;20858;-64